Time;durP1;ratioP1;P1;durP2;ratioP2;P2;SDS_P1;SDS_P2;PMS_P1;PMS_P2;Temp;Humidity;BMP_temperature;BMP_pressure;BME280_temperature;BME280_humidity;BME280_pressure;Samples;Min_cycle;Max_cycle;Signal;HPM_P1;HPM_P2
2021/06/28 00:00:13;;;;;;;6.57;3.70;;;23.00;99.90;;;;;;4237224;28;20588;-74
2021/06/28 00:02:16;;;;;;;7.07;3.70;;;23.00;99.90;;;;;;4232499;28;20039;-74
2021/06/28 00:04:19;;;;;;;4.93;3.67;;;22.90;99.90;;;;;;4248576;27;20047;-76
2021/06/28 00:06:23;;;;;;;4.30;3.53;;;22.90;99.90;;;;;;4230848;28;20055;-76
2021/06/28 00:08:26;;;;;;;4.25;3.20;;;22.80;99.90;;;;;;4231859;28;20046;-75
2021/06/28 00:10:31;;;;;;;4.75;3.00;;;22.80;99.90;;;;;;4212213;28;20047;-75
2021/06/28 00:12:36;;;;;;;4.88;3.60;;;22.80;99.90;;;;;;4247490;27;20558;-74
2021/06/28 00:14:39;;;;;;;5.20;3.38;;;22.90;99.90;;;;;;4248456;27;20070;-76
2021/06/28 00:16:42;;;;;;;9.23;4.68;;;22.90;99.90;;;;;;4253216;27;20474;-73
2021/06/28 00:18:45;;;;;;;5.50;3.67;;;23.00;99.90;;;;;;4251554;27;20043;-74
2021/06/28 00:20:49;;;;;;;4.78;4.13;;;22.90;99.90;;;;;;4247954;27;20061;-74
2021/06/28 00:22:52;;;;;;;5.40;3.67;;;22.90;99.90;;;;;;4229403;27;20563;-74
2021/06/28 00:24:58;;;;;;;3.80;3.50;;;22.90;99.90;;;;;;4231390;28;20054;-74
2021/06/28 00:27:01;;;;;;;6.32;4.10;;;23.00;99.90;;;;;;4229282;27;20131;-74
2021/06/28 00:29:05;;;;;;;5.20;3.75;;;23.00;99.90;;;;;;4229262;28;20043;-74
2021/06/28 00:31:09;;;;;;;4.72;3.70;;;23.00;99.90;;;;;;4246883;27;20058;-75
2021/06/28 00:33:15;;;;;;;4.45;4.05;;;23.10;99.90;;;;;;4229228;28;20050;-72
2021/06/28 00:35:20;;;;;;;8.68;3.47;;;23.10;99.90;;;;;;4212174;28;20055;-79
2021/06/28 00:37:23;;;;;;;;;;;23.00;99.90;;;;;;4247760;27;20048;-74
2021/06/28 00:39:26;;;;;;;6.35;3.30;;;23.00;99.90;;;;;;4228306;28;19926;-74
2021/06/28 00:41:29;;;;;;;7.15;3.30;;;23.00;99.90;;;;;;4246924;27;20062;-73
2021/06/28 00:43:32;;;;;;;6.22;3.35;;;23.00;99.90;;;;;;4228693;28;20040;-75
2021/06/28 00:45:39;;;;;;;7.35;2.85;;;22.90;99.90;;;;;;4247490;27;20475;-74
2021/06/28 00:47:43;;;;;;;5.20;2.80;;;23.00;99.90;;;;;;4247185;27;20043;-75
2021/06/28 00:49:46;;;;;;;4.22;2.97;;;22.90;99.90;;;;;;4247164;27;20039;-74
2021/06/28 00:51:52;;;;;;;5.57;3.25;;;23.00;99.90;;;;;;4247140;27;20050;-74
2021/06/28 00:53:55;;;;;;;8.38;2.63;;;22.90;99.90;;;;;;4246701;27;20406;-74
2021/06/28 00:56:11;;;;;;;5.13;3.08;;;22.90;99.90;;;;;;4228733;28;20058;-74
2021/06/28 00:58:15;;;;;;;4.70;2.80;;;22.90;99.90;;;;;;4229473;28;20043;-75
2021/06/28 01:00:19;;;;;;;4.33;2.73;;;23.00;99.90;;;;;;4251169;27;20055;-76
2021/06/28 01:02:24;;;;;;;3.90;2.70;;;23.00;99.90;;;;;;4251440;27;20115;-74
2021/06/28 01:04:27;;;;;;;5.93;2.53;;;23.00;99.90;;;;;;4250471;27;20483;-73
2021/06/28 01:06:30;;;;;;;3.47;2.55;;;23.00;99.90;;;;;;4247077;27;20043;-74
2021/06/28 01:08:34;;;;;;;4.05;2.53;;;23.00;99.90;;;;;;4246569;27;20046;-74
2021/06/28 01:10:38;;;;;;;5.32;2.20;;;23.00;99.90;;;;;;4228606;28;20138;-75
2021/06/28 01:12:42;;;;;;;2.03;1.67;;;22.90;99.90;;;;;;4228611;28;20071;-75
2021/06/28 01:14:45;;;;;;;3.47;1.85;;;23.00;99.90;;;;;;4246411;27;20135;-73
2021/06/28 01:16:49;;;;;;;5.22;2.30;;;23.00;99.90;;;;;;4228356;28;20047;-75
2021/06/28 01:18:53;;;;;;;4.63;2.50;;;22.90;99.90;;;;;;4246561;27;20047;-74
2021/06/28 01:20:58;;;;;;;3.45;1.90;;;22.90;99.90;;;;;;4227800;28;20062;-74
2021/06/28 01:23:17;;;;;;;2.17;1.85;;;22.80;99.90;;;;;;4228234;28;20197;-74
2021/06/28 01:25:23;;;;;;;7.05;2.53;;;22.70;99.90;;;;;;4245862;27;20395;-75
2021/06/28 01:27:28;;;;;;;3.35;1.95;;;22.60;99.90;;;;;;4246252;27;20047;-74
2021/06/28 01:29:31;;;;;;;3.30;2.20;;;22.40;99.90;;;;;;4245919;27;20039;-74
2021/06/28 01:31:34;;;;;;;1.92;1.75;;;22.30;99.90;;;;;;4227780;28;20048;-74
2021/06/28 01:33:38;;;;;;;2.10;1.90;;;22.40;99.90;;;;;;4211086;28;20063;-74
2021/06/28 01:35:42;;;;;;;3.55;2.45;;;22.50;99.90;;;;;;4227877;28;20400;-74
2021/06/28 01:37:48;;;;;;;4.32;2.30;;;22.60;99.90;;;;;;4227906;28;20045;-73
2021/06/28 01:39:55;;;;;;;6.28;2.88;;;22.60;99.90;;;;;;4245947;28;20614;-73
2021/06/28 01:41:58;;;;;;;7.80;2.83;;;22.60;99.90;;;;;;4210838;28;20074;-74
2021/06/28 01:44:01;;;;;;;4.55;2.70;;;22.60;99.90;;;;;;4228079;28;20067;-74
2021/06/28 01:46:05;;;;;;;3.97;2.35;;;22.60;99.90;;;;;;4246293;28;20476;-75
2021/06/28 01:48:08;;;;;;;3.50;2.15;;;22.60;99.90;;;;;;4246024;28;20055;-75
2021/06/28 01:50:13;;;;;;;3.58;2.15;;;22.70;99.90;;;;;;4227956;28;20032;-76
2021/06/28 01:52:17;;;;;;;2.42;1.88;;;22.70;99.90;;;;;;4227976;28;20047;-75
2021/06/28 01:54:20;;;;;;;3.40;1.98;;;22.70;99.90;;;;;;4245958;28;20510;-75
2021/06/28 01:56:25;;;;;;;2.17;1.98;;;22.70;99.90;;;;;;4228199;28;20051;-77
2021/06/28 01:58:28;;;;;;;4.03;2.40;;;22.70;99.90;;;;;;4245862;28;20062;-76
2021/06/28 02:00:36;;;;;;;3.95;2.35;;;22.70;99.90;;;;;;4245977;28;20035;-76
2021/06/28 02:02:39;;;;;;;4.05;2.65;;;22.70;99.90;;;;;;4228021;28;20044;-75
2021/06/28 02:04:42;;;;;;;6.60;2.15;;;22.60;99.90;;;;;;4227966;28;20527;-75
2021/06/28 02:06:47;;;;;;;7.05;1.65;;;22.50;99.90;;;;;;4246615;27;20043;-76
2021/06/28 02:08:50;;;;;;;3.80;1.70;;;22.50;99.90;;;;;;4253064;27;20051;-75
2021/06/28 02:10:56;;;;;;;2.85;1.55;;;22.40;99.90;;;;;;4235890;28;20094;-75
2021/06/28 02:13:00;;;;;;;2.20;1.27;;;22.40;99.90;;;;;;4254100;27;20043;-74
2021/06/28 02:15:05;;;;;;;6.13;1.20;;;22.30;99.90;;;;;;4234396;28;20048;-74
2021/06/28 02:17:08;;;;;;;3.08;1.15;;;22.30;99.90;;;;;;4251638;27;20047;-75
2021/06/28 02:19:11;;;;;;;6.93;1.70;;;22.40;99.90;;;;;;4232925;28;20058;-74
2021/06/28 02:21:14;;;;;;;2.83;1.33;;;22.40;99.90;;;;;;4253268;27;20043;-74
2021/06/28 02:23:33;;;;;;;3.08;1.15;;;22.40;99.90;;;;;;4254126;27;20047;-75
2021/06/28 02:25:36;;;;;;;1.90;1.48;;;22.40;99.90;;;;;;4252084;27;20557;-76
2021/06/28 02:27:41;;;;;;;3.20;1.25;;;22.30;99.90;;;;;;4249596;27;20121;-76
2021/06/28 02:29:45;;;;;;;2.77;1.30;;;22.10;99.90;;;;;;4248566;27;20062;-75
2021/06/28 02:31:49;;;;;;;1.15;1.05;;;22.10;99.90;;;;;;4249216;27;20042;-75
2021/06/28 02:33:53;;;;;;;3.08;1.27;;;22.20;99.90;;;;;;4214040;28;20074;-74
2021/06/28 02:35:57;;;;;;;2.50;1.30;;;22.30;99.90;;;;;;4214435;28;20063;-74
2021/06/28 02:38:00;;;;;;;2.25;1.20;;;22.40;99.90;;;;;;4230584;28;20044;-75
2021/06/28 02:40:04;;;;;;;3.85;1.17;;;22.40;99.90;;;;;;4213933;28;20052;-74
2021/06/28 02:42:07;;;;;;;2.45;1.00;;;22.40;99.90;;;;;;4230276;28;20054;-73
2021/06/28 02:44:11;;;;;;;1.05;0.90;;;22.40;99.90;;;;;;4230770;28;20065;-74
2021/06/28 02:46:15;;;;;;;1.23;0.90;;;22.30;99.90;;;;;;4248959;27;20052;-76
2021/06/28 02:48:18;;;;;;;3.80;1.20;;;22.30;99.90;;;;;;4248813;27;20066;-75
2021/06/28 02:50:22;;;;;;;1.30;0.82;;;22.30;99.90;;;;;;4230244;28;20439;-74
2021/06/28 02:52:25;;;;;;;1.40;1.13;;;22.30;99.90;;;;;;4230829;28;20431;-74
2021/06/28 02:54:28;;;;;;;2.95;1.10;;;22.40;99.90;;;;;;4247979;27;20051;-74
2021/06/28 02:56:31;;;;;;;5.70;1.05;;;22.40;99.90;;;;;;4248336;27;20039;-74
2021/06/28 02:58:34;;;;;;;6.50;1.10;;;22.30;99.90;;;;;;4248340;27;20043;-75
2021/06/28 03:00:37;;;;;;;2.60;1.13;;;22.30;99.90;;;;;;4248175;27;20043;-76
2021/06/28 03:02:42;;;;;;;3.70;1.02;;;22.10;99.90;;;;;;4229713;28;20051;-74
2021/06/28 03:04:46;;;;;;;3.08;1.10;;;22.00;99.90;;;;;;4247938;27;20464;-75
2021/06/28 03:06:49;;;;;;;2.72;0.98;;;21.90;99.90;;;;;;4230381;28;20043;-75
2021/06/28 03:08:52;;;;;;;2.28;1.05;;;21.90;99.90;;;;;;4230241;28;20048;-74
2021/06/28 03:10:55;;;;;;;1.48;1.38;;;21.90;99.90;;;;;;4248629;27;20035;-74
2021/06/28 03:12:58;;;;;;;2.15;0.98;;;21.90;99.90;;;;;;4248439;27;20050;-73
2021/06/28 03:15:03;;;;;;;2.13;1.02;;;22.00;99.90;;;;;;4230262;28;20174;-74
2021/06/28 03:17:06;;;;;;;5.05;1.13;;;22.10;99.90;;;;;;4250886;27;20042;-73
2021/06/28 03:19:11;;;;;;;3.90;1.15;;;22.20;99.90;;;;;;4247583;27;20539;-74
2021/06/28 03:21:14;;;;;;;5.95;1.70;;;22.10;99.90;;;;;;4250772;27;20039;-73
2021/06/28 03:23:17;;;;;;;2.35;1.10;;;22.00;99.90;;;;;;4231598;28;20075;-74
2021/06/28 03:25:21;;;;;;;1.75;1.00;;;22.10;99.90;;;;;;4248121;27;20035;-76
2021/06/28 03:27:24;;;;;;;2.50;1.15;;;22.10;99.90;;;;;;4229943;28;20047;-74
2021/06/28 03:29:27;;;;;;;3.05;1.20;;;22.10;99.90;;;;;;4247919;27;20043;-74
2021/06/28 03:31:32;;;;;;;4.07;1.13;;;22.00;99.90;;;;;;4247925;27;20049;-74
2021/06/28 03:33:35;;;;;;;4.50;1.23;;;21.90;99.90;;;;;;4229693;28;20040;-74
2021/06/28 03:35:40;;;;;;;3.45;0.95;;;21.90;99.90;;;;;;4248140;27;20043;-74
2021/06/28 03:37:44;;;;;;;3.50;1.20;;;22.10;99.90;;;;;;4229798;27;20039;-73
2021/06/28 03:39:47;;;;;;;3.05;1.27;;;22.10;99.90;;;;;;4229741;28;20039;-74
2021/06/28 03:41:50;;;;;;;3.15;1.08;;;22.10;99.90;;;;;;4247605;27;20050;-74
2021/06/28 03:43:55;;;;;;;3.60;1.20;;;22.10;99.90;;;;;;4212993;28;20646;-74
2021/06/28 03:45:58;;;;;;;2.65;1.05;;;22.10;99.90;;;;;;4247625;27;20103;-74
2021/06/28 03:48:02;;;;;;;6.47;1.30;;;22.10;99.90;;;;;;4229254;27;20055;-75
2021/06/28 03:50:07;;;;;;;1.42;1.02;;;22.00;99.90;;;;;;4229180;27;20039;-76
2021/06/28 03:52:12;;;;;;;6.47;1.17;;;22.10;99.90;;;;;;4229352;28;20035;-74
2021/06/28 03:54:15;;;;;;;4.35;1.25;;;21.90;99.90;;;;;;4229088;28;20054;-75
2021/06/28 03:56:19;;;;;;;4.07;1.10;;;21.90;99.90;;;;;;4229650;28;20372;-74
2021/06/28 03:58:22;;;;;;;6.07;1.50;;;22.00;99.90;;;;;;4247821;27;20484;-74
2021/06/28 04:00:26;;;;;;;4.10;1.23;;;21.90;99.90;;;;;;4247795;27;20169;-75
2021/06/28 04:02:29;;;;;;;6.93;1.20;;;21.90;99.90;;;;;;4251228;27;20043;-74
2021/06/28 04:04:32;;;;;;;2.47;1.02;;;21.90;99.90;;;;;;4236140;28;20043;-76
2021/06/28 04:06:36;;;;;;;5.45;1.73;;;21.90;99.90;;;;;;4254838;27;20053;-77
2021/06/28 04:08:40;;;;;;;6.93;1.35;;;21.80;99.90;;;;;;4237383;28;20535;-77
2021/06/28 04:10:43;;;;;;;6.53;1.48;;;21.90;99.90;;;;;;4219934;28;20295;-76
2021/06/28 04:12:48;;;;;;;4.28;1.40;;;22.00;99.90;;;;;;4214241;28;20433;-75
2021/06/28 04:14:51;;;;;;;3.05;1.10;;;22.00;99.90;;;;;;4229883;28;20055;-75
2021/06/28 04:16:55;;;;;;;4.10;1.25;;;22.00;99.90;;;;;;4229292;28;20047;-75
2021/06/28 04:18:58;;;;;;;2.75;1.30;;;21.90;99.90;;;;;;4229058;28;20051;-74
2021/06/28 04:21:02;;;;;;;4.97;1.35;;;21.90;99.90;;;;;;4229702;28;20058;-76
2021/06/28 04:23:05;;;;;;;4.78;1.42;;;21.80;99.90;;;;;;4230048;28;20050;-74
2021/06/28 04:25:12;;;;;;;6.05;1.20;;;21.70;99.90;;;;;;4232756;28;20052;-76
2021/06/28 04:27:15;;;;;;;5.47;1.50;;;21.70;99.90;;;;;;4254071;27;20130;-76
2021/06/28 04:29:18;;;;;;;3.72;1.20;;;21.80;99.90;;;;;;4254377;27;20062;-74
2021/06/28 04:31:22;;;;;;;7.70;1.10;;;21.80;99.90;;;;;;4232879;28;20039;-75
2021/06/28 04:33:25;;;;;;;4.70;1.00;;;21.80;99.90;;;;;;4233949;28;20043;-74
2021/06/28 04:35:29;;;;;;;5.60;1.40;;;21.80;99.90;;;;;;4233491;28;20048;-74
2021/06/28 04:37:32;;;;;;;5.15;1.38;;;21.80;99.90;;;;;;4251916;27;20051;-74
2021/06/28 04:39:35;;;;;;;2.95;1.48;;;21.80;99.90;;;;;;4250334;27;20043;-78
2021/06/28 04:41:40;;;;;;;7.05;1.40;;;21.80;99.90;;;;;;4232241;28;20046;-75
2021/06/28 04:43:43;;;;;;;1.73;1.40;;;21.70;99.90;;;;;;4233043;28;20052;-74
2021/06/28 04:45:46;;;;;;;8.65;1.40;;;21.60;99.90;;;;;;4231489;28;20043;-75
2021/06/28 04:47:50;;;;;;;2.30;1.30;;;21.70;99.90;;;;;;4246284;27;20051;-74
2021/06/28 04:49:53;;;;;;;1.48;1.27;;;21.80;99.90;;;;;;4228748;28;20055;-75
2021/06/28 04:51:56;;;;;;;4.22;1.00;;;21.90;99.90;;;;;;4246609;27;20051;-74
2021/06/28 04:54:00;;;;;;;2.97;1.33;;;21.90;99.90;;;;;;4217050;28;20490;-74
2021/06/28 04:56:04;;;;;;;3.58;1.38;;;21.80;99.90;;;;;;4211702;28;20052;-75
2021/06/28 04:58:09;;;;;;;4.40;1.25;;;21.60;99.90;;;;;;4211419;28;20067;-74
2021/06/28 05:00:14;;;;;;;3.25;1.10;;;21.60;99.90;;;;;;4212743;28;20045;-75
2021/06/28 05:02:17;;;;;;;2.08;1.15;;;21.60;99.90;;;;;;4211076;28;20051;-74
2021/06/28 05:04:20;;;;;;;2.13;1.10;;;21.70;99.90;;;;;;4211564;28;20054;-74
2021/06/28 05:06:23;;;;;;;3.47;1.13;;;21.70;99.90;;;;;;4212329;28;20193;-74
2021/06/28 05:08:27;;;;;;;4.47;1.40;;;21.70;99.90;;;;;;4211508;28;20048;-75
2021/06/28 05:10:30;;;;;;;3.80;1.20;;;21.60;99.90;;;;;;4211397;28;20039;-74
2021/06/28 05:12:33;;;;;;;6.53;1.73;;;21.60;99.90;;;;;;4211266;28;20404;-73
2021/06/28 05:14:39;;;;;;;8.90;1.52;;;21.70;99.90;;;;;;4194834;28;20533;-74
2021/06/28 05:16:42;;;;;;;3.40;1.52;;;21.60;99.90;;;;;;4212554;28;20511;-74
2021/06/28 05:18:45;;;;;;;7.13;1.48;;;21.60;99.90;;;;;;4211469;28;20519;-75
2021/06/28 05:20:49;;;;;;;5.43;1.27;;;21.60;99.90;;;;;;4212275;28;20052;-74
2021/06/28 05:22:52;;;;;;;5.75;1.77;;;21.60;99.90;;;;;;4211149;28;20568;-75
2021/06/28 05:24:55;;;;;;;5.55;1.48;;;21.60;99.90;;;;;;4211302;28;20063;-75
2021/06/28 05:26:58;;;;;;;3.33;1.40;;;21.60;99.90;;;;;;4210960;28;20047;-74
2021/06/28 05:29:01;;;;;;;5.63;1.65;;;21.60;99.90;;;;;;4211453;28;20048;-74
2021/06/28 05:31:06;;;;;;;3.55;1.40;;;21.70;99.90;;;;;;4212281;28;20047;-75
2021/06/28 05:33:09;;;;;;;10.57;1.60;;;21.60;99.90;;;;;;4211304;28;20114;-75
2021/06/28 05:35:12;;;;;;;7.57;1.70;;;21.60;99.90;;;;;;4212538;28;20040;-74
2021/06/28 05:37:15;;;;;;;7.43;1.48;;;21.50;99.90;;;;;;4214625;28;20066;-74
2021/06/28 05:39:18;;;;;;;9.57;1.65;;;21.40;99.90;;;;;;4214839;28;20536;-74
2021/06/28 05:41:22;;;;;;;5.18;1.70;;;21.40;99.90;;;;;;4211568;28;20059;-74
2021/06/28 05:43:25;;;;;;;11.48;1.75;;;21.40;99.90;;;;;;4214166;28;20063;-76
2021/06/28 05:45:28;;;;;;;12.32;1.85;;;21.40;99.90;;;;;;4215557;28;20126;-74
2021/06/28 05:47:33;;;;;;;7.95;2.00;;;21.40;99.90;;;;;;4215134;28;20082;-75
2021/06/28 05:49:37;;;;;;;;;;;21.50;99.90;;;;;;4217215;28;20089;-76
2021/06/28 05:51:40;;;;;;;8.38;1.70;;;21.50;99.90;;;;;;4199729;28;19936;-75
2021/06/28 05:53:43;;;;;;;4.90;2.03;;;21.60;99.90;;;;;;4234357;27;20054;-75
2021/06/28 05:55:47;;;;;;;6.88;1.80;;;21.60;99.90;;;;;;4231581;28;20063;-75
2021/06/28 05:57:51;;;;;;;7.13;1.83;;;21.70;99.90;;;;;;4251437;27;20070;-75
2021/06/28 05:59:54;;;;;;;6.05;1.70;;;21.80;99.90;;;;;;4231469;28;20059;-74
2021/06/28 06:01:57;;;;;;;3.65;1.85;;;21.90;99.90;;;;;;4249782;27;20055;-73
2021/06/28 06:04:02;;;;;;;3.90;1.60;;;21.80;99.90;;;;;;4231397;28;20039;-74
2021/06/28 06:06:05;;;;;;;8.45;1.98;;;21.80;99.90;;;;;;4215087;28;20135;-73
2021/06/28 06:08:08;;;;;;;6.47;1.42;;;21.70;99.90;;;;;;4233388;27;20126;-75
2021/06/28 06:10:13;;;;;;;8.75;1.60;;;21.80;99.90;;;;;;4234230;28;20040;-74
2021/06/28 06:12:17;;;;;;;8.13;1.60;;;21.80;99.90;;;;;;4235008;28;20066;-74
2021/06/28 06:14:20;;;;;;;4.03;1.42;;;21.90;99.90;;;;;;4253748;27;20039;-75
2021/06/28 06:16:24;;;;;;;7.75;1.55;;;21.90;99.90;;;;;;4234265;28;20468;-75
2021/06/28 06:18:28;;;;;;;7.38;1.60;;;21.90;99.90;;;;;;4217015;28;20052;-73
2021/06/28 06:20:32;;;;;;;5.80;1.73;;;21.90;99.90;;;;;;4253440;27;20400;-74
2021/06/28 06:22:36;;;;;;;9.00;1.90;;;21.80;99.90;;;;;;4217024;28;20059;-75
2021/06/28 06:24:40;;;;;;;6.68;1.95;;;21.80;99.90;;;;;;4250466;27;20049;-76
2021/06/28 06:26:43;;;;;;;10.95;2.28;;;21.90;99.90;;;;;;4249545;27;20131;-75
2021/06/28 06:28:46;;;;;;;9.35;2.33;;;21.90;99.90;;;;;;4230984;28;20054;-75
2021/06/28 06:30:49;;;;;;;6.22;1.60;;;21.90;99.90;;;;;;4249596;27;20411;-76
2021/06/28 06:32:52;;;;;;;7.38;1.83;;;21.90;99.90;;;;;;4232166;28;20124;-74
2021/06/28 06:34:55;;;;;;;5.05;1.70;;;22.00;99.90;;;;;;4231432;28;20062;-75
2021/06/28 06:37:00;;;;;;;5.53;2.20;;;21.90;99.90;;;;;;4249507;27;20133;-76
2021/06/28 06:39:04;;;;;;;6.47;2.10;;;21.70;99.90;;;;;;4231132;28;20047;-75
2021/06/28 06:41:07;;;;;;;6.05;2.00;;;21.80;99.90;;;;;;4232391;27;20055;-75
2021/06/28 06:43:10;;;;;;;5.10;2.05;;;21.90;99.90;;;;;;4234453;27;20298;-76
2021/06/28 06:45:14;;;;;;;12.00;1.83;;;21.80;99.90;;;;;;4237108;28;20135;-75
2021/06/28 06:47:17;;;;;;;8.65;2.10;;;21.80;99.90;;;;;;4237330;28;20082;-74
2021/06/28 06:49:20;;;;;;;9.27;1.88;;;21.80;99.90;;;;;;4238069;28;20089;-75
2021/06/28 06:51:26;;;;;;;7.10;1.90;;;21.70;99.90;;;;;;4237635;28;20058;-74
2021/06/28 06:53:30;;;;;;;8.15;1.70;;;21.80;99.90;;;;;;4237002;28;20538;-74
2021/06/28 06:55:38;;;;;;;6.72;1.63;;;21.90;99.90;;;;;;4235399;27;20518;-74
2021/06/28 06:57:43;;;;;;;12.13;2.00;;;22.00;99.90;;;;;;4256424;27;20582;-76
2021/06/28 06:59:46;;;;;;;10.02;2.25;;;22.00;99.90;;;;;;4237131;27;20047;-75
2021/06/28 07:01:49;;;;;;;3.83;1.70;;;21.90;99.90;;;;;;4235445;28;20046;-76
2021/06/28 07:03:53;;;;;;;11.05;1.88;;;22.00;99.90;;;;;;4235740;28;20040;-74
2021/06/28 07:05:56;;;;;;;6.57;2.40;;;22.00;99.90;;;;;;4250672;27;20077;-76
2021/06/28 07:07:59;;;;;;;11.73;2.38;;;22.00;99.90;;;;;;4250153;27;20039;-75
2021/06/28 07:10:05;;;;;;;10.82;2.35;;;21.90;99.90;;;;;;4234450;28;20055;-75
2021/06/28 07:12:09;;;;;;;15.27;2.15;;;21.80;99.90;;;;;;4250799;27;20051;-76
2021/06/28 07:14:13;;;;;;;6.68;1.90;;;21.80;99.90;;;;;;4250625;27;20043;-74
2021/06/28 07:16:17;;;;;;;7.63;1.88;;;22.00;99.90;;;;;;4231099;28;20579;-75
2021/06/28 07:18:20;;;;;;;4.00;1.50;;;22.00;99.90;;;;;;4230593;27;20044;-74
2021/06/28 07:20:24;;;;;;;4.53;1.60;;;22.00;99.90;;;;;;4230218;28;20097;-74
2021/06/28 07:22:27;;;;;;;10.50;2.00;;;22.20;99.90;;;;;;4230409;27;20123;-74
2021/06/28 07:24:30;;;;;;;11.88;1.98;;;22.30;99.90;;;;;;4231082;28;20533;-76
2021/06/28 07:26:35;;;;;;;13.63;1.95;;;22.40;99.90;;;;;;4249273;27;20050;-74
2021/06/28 07:28:38;;;;;;;11.68;2.40;;;22.50;99.90;;;;;;4230994;28;20058;-74
2021/06/28 07:30:41;;;;;;;9.80;1.83;;;22.60;99.90;;;;;;4248522;27;20054;-75
2021/06/28 07:32:45;;;;;;;11.40;1.58;;;22.60;99.90;;;;;;4249108;27;20039;-75
2021/06/28 07:34:49;;;;;;;6.55;2.05;;;22.70;99.90;;;;;;4230816;28;20040;-75
2021/06/28 07:36:52;;;;;;;10.15;2.00;;;22.70;99.90;;;;;;4230396;28;20511;-75
2021/06/28 07:39:01;;;;;;;7.75;1.77;;;22.80;99.90;;;;;;4248063;27;20050;-75
2021/06/28 07:41:05;;;;;;;9.30;1.60;;;22.90;99.90;;;;;;4230081;28;20047;-74
2021/06/28 07:43:10;;;;;;;15.20;2.30;;;22.90;99.90;;;;;;4230048;28;20044;-75
2021/06/28 07:45:14;;;;;;;10.50;2.00;;;23.00;99.90;;;;;;4231199;28;20527;-76
2021/06/28 07:47:17;;;;;;;18.38;2.42;;;23.10;99.90;;;;;;4230248;28;20130;-73
2021/06/28 07:49:20;;;;;;;7.25;1.85;;;23.10;99.90;;;;;;4230090;28;20121;-74
2021/06/28 07:51:23;;;;;;;3.83;1.60;;;23.10;99.90;;;;;;4230100;28;20514;-74
2021/06/28 07:53:27;;;;;;;9.25;1.75;;;23.00;99.70;;;;;;4229056;28;20055;-74
2021/06/28 07:55:30;;;;;;;6.20;2.00;;;23.10;99.90;;;;;;4230110;27;20043;-76
2021/06/28 07:57:33;;;;;;;5.60;1.83;;;23.10;99.90;;;;;;4247936;27;20130;-75
2021/06/28 07:59:38;;;;;;;14.95;2.70;;;23.30;99.90;;;;;;4213705;28;20051;-75
2021/06/28 08:01:41;;;;;;;6.95;1.90;;;23.30;99.90;;;;;;4232196;28;20052;-75
2021/06/28 08:03:45;;;;;;;8.60;1.95;;;23.30;99.50;;;;;;4218188;28;20051;-75
2021/06/28 08:05:48;;;;;;;6.35;1.67;;;23.40;99.90;;;;;;4233089;28;20228;-75
2021/06/28 08:07:51;;;;;;;12.98;4.10;;;23.40;98.80;;;;;;4217976;28;20048;-75
2021/06/28 08:09:55;;;;;;;9.10;2.35;;;23.60;99.90;;;;;;4230066;28;20090;-76
2021/06/28 08:11:58;;;;;;;7.75;1.77;;;23.70;99.90;;;;;;4248182;27;20043;-75
2021/06/28 08:14:03;;;;;;;13.68;1.90;;;23.90;99.90;;;;;;4229777;28;20497;-75
2021/06/28 08:16:07;;;;;;;4.20;1.40;;;23.90;99.60;;;;;;4248020;27;20043;-74
2021/06/28 08:18:11;;;;;;;4.68;1.50;;;23.80;98.70;;;;;;4229846;27;20044;-75
2021/06/28 08:20:15;;;;;;;6.15;1.40;;;23.80;98.20;;;;;;4229482;28;20047;-75
2021/06/28 08:22:19;;;;;;;6.18;1.15;;;24.00;98.70;;;;;;4212130;28;20055;-75
2021/06/28 08:24:22;;;;;;;11.93;2.03;;;24.10;99.60;;;;;;4247160;27;20122;-74
2021/06/28 08:26:25;;;;;;;15.60;2.45;;;24.20;99.70;;;;;;4229454;28;20052;-74
2021/06/28 08:28:28;;;;;;;12.80;2.67;;;24.20;98.30;;;;;;4229271;27;20085;-74
2021/06/28 08:30:32;;;;;;;6.40;1.73;;;23.90;98.10;;;;;;4229671;28;20074;-74
2021/06/28 08:32:37;;;;;;;7.30;2.20;;;23.80;99.40;;;;;;4229463;28;20152;-75
2021/06/28 08:34:41;;;;;;;9.70;1.85;;;24.00;99.20;;;;;;4229206;28;20052;-74
2021/06/28 08:36:46;;;;;;;11.00;1.73;;;24.20;99.50;;;;;;4213305;28;20051;-74
2021/06/28 08:38:49;;;;;;;5.53;1.70;;;24.10;97.70;;;;;;4248635;27;20494;-75
2021/06/28 08:40:53;;;;;;;8.52;1.65;;;24.00;97.80;;;;;;4230734;28;20097;-75
2021/06/28 08:42:56;;;;;;;7.97;1.70;;;23.90;97.90;;;;;;4231151;28;20043;-74
2021/06/28 08:44:59;;;;;;;4.70;1.40;;;24.00;98.30;;;;;;4230643;28;20039;-73
2021/06/28 08:47:04;;;;;;;7.22;1.90;;;24.30;98.20;;;;;;4248876;27;20398;-74
2021/06/28 08:49:09;;;;;;;13.57;2.25;;;24.40;98.60;;;;;;4248401;27;20047;-74
2021/06/28 08:51:12;;;;;;;;;;;24.50;97.70;;;;;;4249336;27;20050;-75
2021/06/28 08:53:34;;;;;;;9.13;1.90;;;24.50;98.10;;;;;;4247976;27;20010;-74
2021/06/28 08:55:39;;;;;;;9.63;1.80;;;24.60;98.40;;;;;;4249129;27;20039;-75
2021/06/28 08:57:43;;;;;;;9.93;1.98;;;24.60;96.80;;;;;;4214290;28;20048;-74
2021/06/28 08:59:46;;;;;;;8.93;2.08;;;24.60;97.80;;;;;;4248183;27;20049;-73
2021/06/28 09:01:49;;;;;;;6.35;1.77;;;24.40;97.40;;;;;;4247887;27;20301;-77
2021/06/28 09:03:53;;;;;;;10.98;2.22;;;24.60;97.00;;;;;;4247514;27;20050;-74
2021/06/28 09:06:01;;;;;;;8.52;1.45;;;24.70;98.10;;;;;;4228728;28;20051;-74
2021/06/28 09:08:14;;;;;;;8.35;1.70;;;24.70;97.10;;;;;;4246859;27;20278;-75
2021/06/28 09:10:34;;;;;;;11.27;2.00;;;24.60;97.30;;;;;;4229607;28;20052;-76
2021/06/28 09:12:49;;;;;;;9.88;1.80;;;24.60;97.00;;;;;;4230992;28;20059;-74
2021/06/28 09:14:55;;;;;;;9.27;1.70;;;24.60;97.30;;;;;;4234400;28;20047;-74
2021/06/28 09:16:58;;;;;;;5.63;1.83;;;24.70;97.30;;;;;;4217511;28;20060;-76
2021/06/28 09:19:03;;;;;;;8.35;1.75;;;24.80;97.10;;;;;;4252773;27;20051;-76
2021/06/28 09:21:09;;;;;;;4.75;1.10;;;24.80;97.00;;;;;;4232132;28;20062;-74
2021/06/28 09:23:20;;;;;;;7.22;1.88;;;24.90;96.90;;;;;;4231801;28;20040;-75
2021/06/28 09:25:32;;;;;;;8.48;1.70;;;24.90;96.30;;;;;;4251517;27;20131;-74
2021/06/28 09:27:42;;;;;;;6.35;1.23;;;25.00;96.40;;;;;;4250644;27;20400;-75
2021/06/28 09:29:50;;;;;;;5.65;1.40;;;25.00;96.60;;;;;;4232232;28;20264;-75
2021/06/28 09:31:54;;;;;;;11.38;1.50;;;25.00;96.60;;;;;;4214791;28;20141;-74
2021/06/28 09:34:08;;;;;;;7.88;1.35;;;24.70;94.20;;;;;;4248186;27;20047;-76
2021/06/28 09:36:21;;;;;;;9.17;1.30;;;24.60;94.50;;;;;;4247073;27;20076;-75
2021/06/28 09:38:37;;;;;;;7.88;1.83;;;24.80;95.90;;;;;;4228112;28;20488;-75
2021/06/28 09:40:40;;;;;;;;;;;24.90;95.80;;;;;;4228918;28;20563;-75
2021/06/28 09:42:44;;;;;;;6.25;2.03;;;24.90;96.60;;;;;;4228670;28;19927;-74
2021/06/28 09:44:52;;;;;;;11.70;2.10;;;24.90;95.90;;;;;;4228303;28;20512;-75
2021/06/28 09:47:10;;;;;;;7.47;1.92;;;25.10;96.40;;;;;;4228462;28;20050;-74
2021/06/28 09:49:16;;;;;;;9.60;2.13;;;25.00;95.40;;;;;;4228236;28;20051;-74
2021/06/28 09:51:24;;;;;;;7.80;1.83;;;24.90;95.70;;;;;;4228643;28;20122;-75
2021/06/28 09:53:27;;;;;;;5.22;1.90;;;25.00;96.20;;;;;;4246374;28;20134;-75
2021/06/28 09:55:37;;;;;;;11.88;1.92;;;25.00;95.80;;;;;;4228515;28;20074;-75
2021/06/28 09:58:04;;;;;;;4.63;1.50;;;25.00;95.30;;;;;;4247240;28;20049;-75
2021/06/28 10:00:22;;;;;;;11.18;1.50;;;25.00;94.90;;;;;;4229551;28;20058;-75
2021/06/28 10:02:26;;;;;;;15.55;2.05;;;24.90;94.90;;;;;;4228962;28;20047;-75
2021/06/28 10:04:39;;;;;;;18.13;2.20;;;24.70;95.10;;;;;;4253815;28;20043;-75
2021/06/28 10:06:45;;;;;;;13.38;1.95;;;24.80;95.60;;;;;;4220309;28;20361;-75
2021/06/28 10:08:51;;;;;;;10.68;1.98;;;24.90;95.40;;;;;;4258630;28;20059;-75
2021/06/28 10:11:08;;;;;;;21.33;2.42;;;25.00;95.60;;;;;;4236199;28;20035;-75
2021/06/28 10:13:11;;;;;;;10.55;1.70;;;25.00;94.40;;;;;;4233573;28;20056;-75
2021/06/28 10:15:18;;;;;;;10.20;1.40;;;25.00;94.30;;;;;;4252063;28;20047;-76
2021/06/28 10:17:21;;;;;;;8.52;1.80;;;24.90;94.00;;;;;;4232477;28;20044;-74
2021/06/28 10:19:25;;;;;;;4.85;1.80;;;24.90;94.00;;;;;;4232031;28;20051;-75
2021/06/28 10:21:28;;;;;;;12.38;1.83;;;24.80;94.40;;;;;;4233294;28;20149;-74
2021/06/28 10:23:34;;;;;;;8.50;1.70;;;24.80;94.80;;;;;;4250262;28;20043;-75
2021/06/28 10:25:38;;;;;;;5.85;1.70;;;24.90;95.00;;;;;;4235558;28;20102;-75
2021/06/28 10:27:42;;;;;;;10.57;1.73;;;25.00;94.70;;;;;;4229792;28;20044;-76
2021/06/28 10:29:45;;;;;;;7.38;1.80;;;25.00;94.20;;;;;;4214841;28;20044;-75
2021/06/28 10:31:48;;;;;;;5.95;1.52;;;25.00;94.30;;;;;;4231073;28;20048;-74
2021/06/28 10:33:54;;;;;;;15.05;1.83;;;25.10;94.40;;;;;;4231733;28;20044;-75
2021/06/28 10:36:01;;;;;;;7.78;2.13;;;25.00;94.00;;;;;;4231599;28;20051;-75
2021/06/28 10:38:07;;;;;;;5.45;2.08;;;25.00;93.90;;;;;;4231251;28;20063;-75
2021/06/28 10:40:13;;;;;;;11.50;2.30;;;24.90;94.70;;;;;;4249358;27;20043;-75
2021/06/28 10:42:29;;;;;;;8.55;2.40;;;25.00;94.50;;;;;;4231353;27;20044;-75
2021/06/28 10:44:46;;;;;;;7.10;1.63;;;25.20;95.10;;;;;;4249308;27;20483;-76
2021/06/28 10:46:52;;;;;;;7.65;2.10;;;25.20;93.90;;;;;;4231169;28;20040;-75